sensor_id;sensor_type;location;lat;lon;timestamp;pressure;altitude;pressure_sealevel;temperature;humidity
11444;BME280;5778;47.856;12.154;2023-02-13T00:02:00;98201.34;;;3.49;100.00
11444;BME280;5778;47.856;12.154;2023-02-13T00:04:27;98196.72;;;3.51;100.00
11444;BME280;5778;47.856;12.154;2023-02-13T00:06:54;98201.97;;;3.35;100.00
11444;BME280;5778;47.856;12.154;2023-02-13T00:09:22;98200.19;;;3.51;100.00
11444;BME280;5778;47.856;12.154;2023-02-13T00:11:49;98193.94;;;3.52;100.00
11444;BME280;5778;47.856;12.154;2023-02-13T00:14:17;98194.41;;;3.48;100.00
11444;BME280;5778;47.856;12.154;2023-02-13T00:16:44;98199.00;;;3.54;100.00
11444;BME280;5778;47.856;12.154;2023-02-13T00:19:10;98194.91;;;3.43;100.00
11444;BME280;5778;47.856;12.154;2023-02-13T00:21:37;98198.38;;;3.44;100.00
11444;BME280;5778;47.856;12.154;2023-02-13T00:24:05;98196.50;;;3.28;100.00
11444;BME280;5778;47.856;12.154;2023-02-13T00:26:33;98187.13;;;3.26;100.00
11444;BME280;5778;47.856;12.154;2023-02-13T00:29:00;98190.09;;;3.23;100.00
11444;BME280;5778;47.856;12.154;2023-02-13T00:31:27;98185.84;;;3.22;100.00
11444;BME280;5778;47.856;12.154;2023-02-13T00:33:54;98187.13;;;3.26;100.00
11444;BME280;5778;47.856;12.154;2023-02-13T00:36:21;98184.34;;;3.27;100.00
11444;BME280;5778;47.856;12.154;2023-02-13T00:38:50;98188.09;;;3.09;100.00
11444;BME280;5778;47.856;12.154;2023-02-13T00:41:19;98178.56;;;3.08;100.00
11444;BME280;5778;47.856;12.154;2023-02-13T00:43:48;98183.97;;;2.98;100.00
11444;BME280;5778;47.856;12.154;2023-02-13T00:46:16;98184.75;;;2.99;100.00
11444;BME280;5778;47.856;12.154;2023-02-13T00:48:43;98182.47;;;2.96;100.00
11444;BME280;5778;47.856;12.154;2023-02-13T00:51:10;98182.66;;;3.10;100.00
11444;BME280;5778;47.856;12.154;2023-02-13T00:53:38;98181.22;;;3.16;100.00
11444;BME280;5778;47.856;12.154;2023-02-13T00:56:06;98178.75;;;3.14;100.00
11444;BME280;5778;47.856;12.154;2023-02-13T00:58:35;98181.50;;;3.05;100.00
11444;BME280;5778;47.856;12.154;2023-02-13T01:01:04;98181.69;;;3.03;100.00
11444;BME280;5778;47.856;12.154;2023-02-13T01:03:32;98180.19;;;3.01;100.00
11444;BME280;5778;47.856;12.154;2023-02-13T01:05:59;98175.28;;;3.06;100.00
11444;BME280;5778;47.856;12.154;2023-02-13T01:08:25;98177.56;;;3.01;100.00
11444;BME280;5778;47.856;12.154;2023-02-13T01:10:53;98178.72;;;3.06;100.00
11444;BME280;5778;47.856;12.154;2023-02-13T01:13:21;98179.84;;;2.96;100.00
11444;BME280;5778;47.856;12.154;2023-02-13T01:15:49;98178.25;;;3.11;100.00
11444;BME280;5778;47.856;12.154;2023-02-13T01:18:19;98176.28;;;3.13;100.00
11444;BME280;5778;47.856;12.154;2023-02-13T01:20:55;98162.47;;;3.11;100.00
11444;BME280;5778;47.856;12.154;2023-02-13T01:23:23;98163.91;;;2.97;100.00
11444;BME280;5778;47.856;12.154;2023-02-13T01:25:50;98167.50;;;2.88;100.00
11444;BME280;5778;47.856;12.154;2023-02-13T01:28:17;98165.56;;;3.06;100.00
11444;BME280;5778;47.856;12.154;2023-02-13T01:30:44;98167.22;;;3.07;100.00
11444;BME280;5778;47.856;12.154;2023-02-13T01:33:12;98164.44;;;3.09;100.00
11444;BME280;5778;47.856;12.154;2023-02-13T01:35:40;98165.72;;;2.97;100.00
11444;BME280;5778;47.856;12.154;2023-02-13T01:38:08;98167.34;;;2.90;100.00
11444;BME280;5778;47.856;12.154;2023-02-13T01:40:42;98165.34;;;2.84;100.00
11444;BME280;5778;47.856;12.154;2023-02-13T01:43:11;98164.66;;;2.74;100.00
11444;BME280;5778;47.856;12.154;2023-02-13T01:45:38;98165.94;;;2.62;100.00
11444;BME280;5778;47.856;12.154;2023-02-13T01:48:06;98162.81;;;2.66;100.00
11444;BME280;5778;47.856;12.154;2023-02-13T01:50:40;98168.56;;;2.62;100.00
11444;BME280;5778;47.856;12.154;2023-02-13T01:53:11;98165.22;;;2.52;100.00
11444;BME280;5778;47.856;12.154;2023-02-13T01:55:44;98163.09;;;2.55;100.00
11444;BME280;5778;47.856;12.154;2023-02-13T01:58:16;98161.75;;;2.51;100.00
11444;BME280;5778;47.856;12.154;2023-02-13T02:00:45;98163.72;;;2.49;100.00
11444;BME280;5778;47.856;12.154;2023-02-13T02:03:18;98165.34;;;2.42;100.00
11444;BME280;5778;47.856;12.154;2023-02-13T02:05:51;98163.16;;;2.38;100.00
11444;BME280;5778;47.856;12.154;2023-02-13T02:08:22;98168.56;;;2.36;100.00
11444;BME280;5778;47.856;12.154;2023-02-13T02:10:53;98172.16;;;2.27;100.00
11444;BME280;5778;47.856;12.154;2023-02-13T02:13:22;98172.94;;;2.28;100.00
11444;BME280;5778;47.856;12.154;2023-02-13T02:15:51;98169.03;;;2.32;100.00
11444;BME280;5778;47.856;12.154;2023-02-13T02:18:20;98172.16;;;2.27;100.00
11444;BME280;5778;47.856;12.154;2023-02-13T02:24:20;98177.56;;;2.34;100.00
11444;BME280;5778;47.856;12.154;2023-02-13T02:27:03;98176.28;;;2.38;100.00
11444;BME280;5778;47.856;12.154;2023-02-13T02:30:07;98175.31;;;2.39;100.00
11444;BME280;5778;47.856;12.154;2023-02-13T02:32:58;98169.56;;;2.35;100.00
11444;BME280;5778;47.856;12.154;2023-02-13T02:35:38;98172.75;;;2.47;100.00
11444;BME280;5778;47.856;12.154;2023-02-13T02:38:14;98180.91;;;2.44;100.00
11444;BME280;5778;47.856;12.154;2023-02-13T02:40:58;98178.72;;;2.57;100.00
11444;BME280;5778;47.856;12.154;2023-02-13T02:43:42;98175.56;;;2.53;100.00
11444;BME280;5778;47.856;12.154;2023-02-13T02:46:17;98181.13;;;2.50;100.00
11444;BME280;5778;47.856;12.154;2023-02-13T02:48:55;98181.28;;;2.49;100.00
11444;BME280;5778;47.856;12.154;2023-02-13T02:51:47;98177.56;;;2.34;100.00
11444;BME280;5778;47.856;12.154;2023-02-13T02:54:24;98180.19;;;2.34;100.00
11444;BME280;5778;47.856;12.154;2023-02-13T02:57:23;98173.00;;;2.36;100.00
11444;BME280;5778;47.856;12.154;2023-02-13T03:00:14;98178.25;;;2.36;100.00
11444;BME280;5778;47.856;12.154;2023-02-13T03:03:00;98181.41;;;2.39;100.00
11444;BME280;5778;47.856;12.154;2023-02-13T03:05:46;98183.25;;;2.47;100.00
11444;BME280;5778;47.856;12.154;2023-02-13T03:08:30;98184.38;;;2.44;100.00
11444;BME280;5778;47.856;12.154;2023-02-13T03:11:15;98192.75;;;2.48;100.00
11444;BME280;5778;47.856;12.154;2023-02-13T03:14:02;98191.22;;;2.71;100.00
11444;BME280;5778;47.856;12.154;2023-02-13T03:16:30;98192.88;;;2.72;100.00
11444;BME280;5778;47.856;12.154;2023-02-13T03:19:20;98193.34;;;2.67;100.00
11444;BME280;5778;47.856;12.154;2023-02-13T03:22:15;98190.19;;;2.56;100.00
11444;BME280;5778;47.856;12.154;2023-02-13T03:24:55;98203.22;;;2.40;100.00
11444;BME280;5778;47.856;12.154;2023-02-13T03:27:33;98198.38;;;2.53;100.00
11444;BME280;5778;47.856;12.154;2023-02-13T03:30:26;98198.75;;;2.66;100.00
11444;BME280;5778;47.856;12.154;2023-02-13T03:33:09;98195.16;;;2.67;100.00
11444;BME280;5778;47.856;12.154;2023-02-13T03:35:44;98195.50;;;2.72;100.00
11444;BME280;5778;47.856;12.154;2023-02-13T03:38:36;98202.00;;;2.60;100.00
11444;BME280;5778;47.856;12.154;2023-02-13T03:41:12;98202.56;;;2.71;100.00
11444;BME280;5778;47.856;12.154;2023-02-13T03:43:53;98200.28;;;2.76;100.00
11444;BME280;5778;47.856;12.154;2023-02-13T03:46:23;98191.97;;;2.55;100.00
11444;BME280;5778;47.856;12.154;2023-02-13T03:48:53;98194.13;;;2.60;100.00
11444;BME280;5778;47.856;12.154;2023-02-13T03:51:40;98194.41;;;2.49;100.00
11444;BME280;5778;47.856;12.154;2023-02-13T03:54:16;98199.03;;;2.55;100.00
11444;BME280;5778;47.856;12.154;2023-02-13T03:56:48;98194.81;;;2.62;100.00
11444;BME280;5778;47.856;12.154;2023-02-13T03:59:35;98200.56;;;2.65;100.00
11444;BME280;5778;47.856;12.154;2023-02-13T04:02:07;98199.09;;;2.63;100.00
11444;BME280;5778;47.856;12.154;2023-02-13T04:04:44;98206.81;;;2.64;100.00
11444;BME280;5778;47.856;12.154;2023-02-13T04:07:14;98211.22;;;2.64;100.00
11444;BME280;5778;47.856;12.154;2023-02-13T04:09:57;98211.72;;;2.67;100.00
11444;BME280;5778;47.856;12.154;2023-02-13T04:12:34;98209.25;;;2.66;100.00
11444;BME280;5778;47.856;12.154;2023-02-13T04:15:07;98197.97;;;2.73;100.00
11444;BME280;5778;47.856;12.154;2023-02-13T04:17:38;98205.19;;;2.71;100.00
11444;BME280;5778;47.856;12.154;2023-02-13T04:20:08;98194.22;;;2.76;100.00
11444;BME280;5778;47.856;12.154;2023-02-13T04:22:41;98194.13;;;2.60;100.00
11444;BME280;5778;47.856;12.154;2023-02-13T04:25:12;98201.72;;;2.63;100.00
11444;BME280;5778;47.856;12.154;2023-02-13T04:27:39;98200.53;;;2.57;100.00
11444;BME280;5778;47.856;12.154;2023-02-13T04:30:08;98197.75;;;2.59;100.00
11444;BME280;5778;47.856;12.154;2023-02-13T04:32:36;98189.56;;;2.62;100.00
11444;BME280;5778;47.856;12.154;2023-02-13T04:35:03;98191.91;;;2.39;100.00
11444;BME280;5778;47.856;12.154;2023-02-13T04:37:30;98190.38;;;2.29;100.00
11444;BME280;5778;47.856;12.154;2023-02-13T04:39:57;98190.00;;;2.24;100.00
11444;BME280;5778;47.856;12.154;2023-02-13T04:42:27;98187.81;;;2.19;100.00
11444;BME280;5778;47.856;12.154;2023-02-13T04:44:54;98184.19;;;2.12;100.00
11444;BME280;5778;47.856;12.154;2023-02-13T04:47:21;98178.09;;;2.12;100.00
11444;BME280;5778;47.856;12.154;2023-02-13T04:49:48;98186.31;;;1.91;100.00
11444;BME280;5778;47.856;12.154;2023-02-13T04:52:15;98186.19;;;1.93;100.00
11444;BME280;5778;47.856;12.154;2023-02-13T04:54:44;98179.47;;;1.98;100.00
11444;BME280;5778;47.856;12.154;2023-02-13T04:57:12;98178.78;;;1.71;100.00
11444;BME280;5778;47.856;12.154;2023-02-13T04:59:43;98180.06;;;1.67;100.00
11444;BME280;5778;47.856;12.154;2023-02-13T05:02:11;98177.22;;;1.78;100.00
11444;BME280;5778;47.856;12.154;2023-02-13T05:04:43;98177.06;;;1.62;100.00
11444;BME280;5778;47.856;12.154;2023-02-13T05:07:09;98174.34;;;1.71;100.00
11444;BME280;5778;47.856;12.154;2023-02-13T05:09:38;98171.97;;;1.78;100.00
11444;BME280;5778;47.856;12.154;2023-02-13T05:12:05;98175.94;;;1.82;100.00
11444;BME280;5778;47.856;12.154;2023-02-13T05:14:32;98177.19;;;1.95;100.00
11444;BME280;5778;47.856;12.154;2023-02-13T05:17:01;98169.94;;;1.89;100.00
11444;BME280;5778;47.856;12.154;2023-02-13T05:19:28;98172.22;;;1.92;100.00
11444;BME280;5778;47.856;12.154;2023-02-13T05:21:55;98172.16;;;2.02;100.00
11444;BME280;5778;47.856;12.154;2023-02-13T05:24:39;98170.19;;;2.04;100.00
11444;BME280;5778;47.856;12.154;2023-02-13T05:27:06;98164.97;;;2.12;100.00
11444;BME280;5778;47.856;12.154;2023-02-13T05:29:34;98165.97;;;2.11;100.00
11444;BME280;5778;47.856;12.154;2023-02-13T05:32:02;98169.69;;;2.00;100.00
11444;BME280;5778;47.856;12.154;2023-02-13T05:34:31;98163.97;;;2.05;100.00
11444;BME280;5778;47.856;12.154;2023-02-13T05:36:58;98167.94;;;2.09;100.00
11444;BME280;5778;47.856;12.154;2023-02-13T05:39:25;98173.19;;;2.09;100.00
11444;BME280;5778;47.856;12.154;2023-02-13T05:41:52;98168.28;;;2.14;100.00
11444;BME280;5778;47.856;12.154;2023-02-13T05:44:19;98170.69;;;2.07;100.00
11444;BME280;5778;47.856;12.154;2023-02-13T05:46:46;98171.09;;;1.95;100.00
11444;BME280;5778;47.856;12.154;2023-02-13T05:49:15;98174.59;;;1.78;100.00
11444;BME280;5778;47.856;12.154;2023-02-13T05:51:42;98180.06;;;1.84;100.00
11444;BME280;5778;47.856;12.154;2023-02-13T05:54:11;98181.47;;;1.79;100.00
11444;BME280;5778;47.856;12.154;2023-02-13T05:56:38;98182.06;;;1.73;100.00
11444;BME280;5778;47.856;12.154;2023-02-13T05:59:05;98180.06;;;1.84;100.00
11444;BME280;5778;47.856;12.154;2023-02-13T06:01:32;98185.22;;;1.76;100.00
11444;BME280;5778;47.856;12.154;2023-02-13T06:03:59;98183.72;;;1.74;100.00
11444;BME280;5778;47.856;12.154;2023-02-13T06:06:27;98198.13;;;1.70;100.00
11444;BME280;5778;47.856;12.154;2023-02-13T06:08:54;98197.44;;;1.68;100.00
11444;BME280;5778;47.856;12.154;2023-02-13T06:11:21;98199.53;;;1.64;100.00
11444;BME280;5778;47.856;12.154;2023-02-13T06:13:47;98201.38;;;1.64;100.00
11444;BME280;5778;47.856;12.154;2023-02-13T06:16:14;98200.53;;;1.63;100.00
11444;BME280;5778;47.856;12.154;2023-02-13T06:18:41;98203.00;;;1.47;100.00
11444;BME280;5778;47.856;12.154;2023-02-13T06:21:08;98205.47;;;1.49;100.00
11444;BME280;5778;47.856;12.154;2023-02-13T06:23:36;98210.59;;;1.50;100.00
11444;BME280;5778;47.856;12.154;2023-02-13T06:26:05;98215.38;;;1.55;100.00
11444;BME280;5778;47.856;12.154;2023-02-13T06:28:32;98212.38;;;1.50;100.00
11444;BME280;5778;47.856;12.154;2023-02-13T06:30:59;98221.72;;;1.52;100.00
11444;BME280;5778;47.856;12.154;2023-02-13T06:33:26;98214.47;;;1.64;100.00
11444;BME280;5778;47.856;12.154;2023-02-13T06:35:53;98222.34;;;1.64;100.00
11444;BME280;5778;47.856;12.154;2023-02-13T06:38:20;98234.09;;;1.60;100.00
11444;BME280;5778;47.856;12.154;2023-02-13T06:40:48;98236.84;;;1.58;100.00
11444;BME280;5778;47.856;12.154;2023-02-13T06:43:16;98236.34;;;1.55;100.00
11444;BME280;5778;47.856;12.154;2023-02-13T06:45:44;98243.91;;;1.58;100.00
11444;BME280;5778;47.856;12.154;2023-02-13T06:48:13;98243.38;;;1.54;100.00
11444;BME280;5778;47.856;12.154;2023-02-13T06:50:40;98245.63;;;1.67;100.00
11444;BME280;5778;47.856;12.154;2023-02-13T06:53:07;98255.38;;;1.74;100.00
11444;BME280;5778;47.856;12.154;2023-02-13T06:55:35;98257.91;;;1.84;100.00
11444;BME280;5778;47.856;12.154;2023-02-13T06:58:05;98261.59;;;1.91;100.00
11444;BME280;5778;47.856;12.154;2023-02-13T07:00:32;98251.75;;;1.93;100.00
11444;BME280;5778;47.856;12.154;2023-02-13T07:03:04;98258.75;;;1.84;100.00
11444;BME280;5778;47.856;12.154;2023-02-13T07:05:32;98260.31;;;1.95;100.00
11444;BME280;5778;47.856;12.154;2023-02-13T07:07:59;98260.00;;;1.98;100.00
11444;BME280;5778;47.856;12.154;2023-02-13T07:10:25;98263.63;;;1.97;100.00
11444;BME280;5778;47.856;12.154;2023-02-13T07:12:53;98265.16;;;1.90;100.00
11444;BME280;5778;47.856;12.154;2023-02-13T07:15:21;98261.50;;;1.83;100.00
11444;BME280;5778;47.856;12.154;2023-02-13T07:17:54;98273.72;;;1.92;100.00
11444;BME280;5778;47.856;12.154;2023-02-13T07:20:22;98277.09;;;2.02;100.00
11444;BME280;5778;47.856;12.154;2023-02-13T07:22:49;98272.09;;;1.73;100.00
11444;BME280;5778;47.856;12.154;2023-02-13T07:25:16;98277.56;;;1.80;100.00
11444;BME280;5778;47.856;12.154;2023-02-13T07:27:44;98279.22;;;1.81;100.00
11444;BME280;5778;47.856;12.154;2023-02-13T07:30:11;98278.72;;;1.68;100.00
11444;BME280;5778;47.856;12.154;2023-02-13T07:32:40;98291.19;;;1.66;100.00
11444;BME280;5778;47.856;12.154;2023-02-13T07:35:07;98288.06;;;1.80;100.00
11444;BME280;5778;47.856;12.154;2023-02-13T07:37:34;98295.16;;;1.70;100.00
11444;BME280;5778;47.856;12.154;2023-02-13T07:40:02;98288.34;;;1.77;100.00
11444;BME280;5778;47.856;12.154;2023-02-13T07:42:32;98293.72;;;1.75;100.00
11444;BME280;5778;47.856;12.154;2023-02-13T07:44:58;98301.97;;;1.80;100.00
11444;BME280;5778;47.856;12.154;2023-02-13T07:47:25;98302.22;;;2.04;100.00
11444;BME280;5778;47.856;12.154;2023-02-13T07:49:54;98301.38;;;2.04;100.00
11444;BME280;5778;47.856;12.154;2023-02-13T07:52:21;98309.50;;;2.10;100.00
11444;BME280;5778;47.856;12.154;2023-02-13T07:54:48;98298.22;;;2.18;100.00
11444;BME280;5778;47.856;12.154;2023-02-13T07:57:16;98307.50;;;2.30;100.00
11444;BME280;5778;47.856;12.154;2023-02-13T07:59:43;98308.69;;;2.35;100.00
11444;BME280;5778;47.856;12.154;2023-02-13T08:02:10;98305.56;;;2.32;100.00
11444;BME280;5778;47.856;12.154;2023-02-13T08:04:38;98306.69;;;2.29;100.00
11444;BME280;5778;47.856;12.154;2023-02-13T08:07:07;98301.56;;;2.28;100.00
11444;BME280;5778;47.856;12.154;2023-02-13T08:09:33;98313.44;;;2.32;100.00
11444;BME280;5778;47.856;12.154;2023-02-13T08:12:17;98307.88;;;2.35;100.00
11444;BME280;5778;47.856;12.154;2023-02-13T08:14:44;98306.66;;;2.47;100.00
11444;BME280;5778;47.856;12.154;2023-02-13T08:17:12;98307.78;;;2.44;100.00
11444;BME280;5778;47.856;12.154;2023-02-13T08:19:39;98310.38;;;2.62;100.00
11444;BME280;5778;47.856;12.154;2023-02-13T08:22:08;98308.41;;;2.64;100.00
11444;BME280;5778;47.856;12.154;2023-02-13T08:24:35;98297.34;;;2.78;100.00
11444;BME280;5778;47.856;12.154;2023-02-13T08:27:02;98307.84;;;2.78;100.00
11444;BME280;5778;47.856;12.154;2023-02-13T08:29:29;98311.00;;;2.56;100.00
11444;BME280;5778;47.856;12.154;2023-02-13T08:31:57;98320.63;;;2.73;100.00
11444;BME280;5778;47.856;12.154;2023-02-13T08:34:24;98316.31;;;2.72;100.00
11444;BME280;5778;47.856;12.154;2023-02-13T08:36:51;98317.38;;;2.79;100.00
11444;BME280;5778;47.856;12.154;2023-02-13T08:39:19;98313.63;;;2.81;100.00
11444;BME280;5778;47.856;12.154;2023-02-13T08:41:46;98317.19;;;3.06;100.00
11444;BME280;5778;47.856;12.154;2023-02-13T08:44:13;98318.84;;;3.07;100.00
11444;BME280;5778;47.856;12.154;2023-02-13T08:46:39;98317.91;;;3.16;100.00
11444;BME280;5778;47.856;12.154;2023-02-13T08:49:06;98323.47;;;3.13;100.00
11444;BME280;5778;47.856;12.154;2023-02-13T08:51:33;98317.84;;;3.08;100.00
11444;BME280;5778;47.856;12.154;2023-02-13T08:54:01;98314.25;;;3.09;100.00
11444;BME280;5778;47.856;12.154;2023-02-13T08:56:30;98320.94;;;3.37;100.00
11444;BME280;5778;47.856;12.154;2023-02-13T08:58:56;98312.09;;;3.38;100.00
11444;BME280;5778;47.856;12.154;2023-02-13T09:01:23;98319.69;;;3.49;100.00
11444;BME280;5778;47.856;12.154;2023-02-13T09:03:51;98312.50;;;3.67;100.00
11444;BME280;5778;47.856;12.154;2023-02-13T09:06:18;98315.38;;;3.40;100.00
11444;BME280;5778;47.856;12.154;2023-02-13T09:08:46;98316.06;;;3.50;100.00
11444;BME280;5778;47.856;12.154;2023-02-13T09:11:13;98311.50;;;3.60;100.00
11444;BME280;5778;47.856;12.154;2023-02-13T09:13:43;98310.72;;;3.83;100.00
11444;BME280;5778;47.856;12.154;2023-02-13T09:16:10;98308.91;;;3.84;100.00
11444;BME280;5778;47.856;12.154;2023-02-13T09:18:37;98312.56;;;3.99;100.00
11444;BME280;5778;47.856;12.154;2023-02-13T09:21:07;98302.66;;;3.77;100.00
11444;BME280;5778;47.856;12.154;2023-02-13T09:23:35;98305.63;;;3.82;100.00
11444;BME280;5778;47.856;12.154;2023-02-13T09:26:05;98306.78;;;3.79;100.00
11444;BME280;5778;47.856;12.154;2023-02-13T09:28:32;98308.75;;;3.93;100.00
11444;BME280;5778;47.856;12.154;2023-02-13T09:31:05;98300.72;;;3.95;100.00
11444;BME280;5778;47.856;12.154;2023-02-13T09:33:34;98305.97;;;3.87;100.00
11444;BME280;5778;47.856;12.154;2023-02-13T09:36:03;98304.69;;;3.99;100.00
11444;BME280;5778;47.856;12.154;2023-02-13T09:38:31;98302.19;;;4.05;100.00
11444;BME280;5778;47.856;12.154;2023-02-13T09:40:59;98300.41;;;4.30;100.00
11444;BME280;5778;47.856;12.154;2023-02-13T09:43:30;98296.44;;;4.18;100.00
11444;BME280;5778;47.856;12.154;2023-02-13T09:46:01;98306.97;;;4.18;100.00
11444;BME280;5778;47.856;12.154;2023-02-13T09:48:35;98309.09;;;3.98;100.00
11444;BME280;5778;47.856;12.154;2023-02-13T09:51:03;98306.00;;;4.11;100.00
11444;BME280;5778;47.856;12.154;2023-02-13T09:53:30;98304.69;;;4.39;100.00
11444;BME280;5778;47.856;12.154;2023-02-13T09:56:07;98306.97;;;4.50;100.00
11444;BME280;5778;47.856;12.154;2023-02-13T09:58:40;98309.44;;;4.67;100.00
11444;BME280;5778;47.856;12.154;2023-02-13T10:01:23;98311.09;;;4.68;100.00
11444;BME280;5778;47.856;12.154;2023-02-13T10:04:11;98310.91;;;4.86;100.00
11444;BME280;5778;47.856;12.154;2023-02-13T10:06:44;98306.63;;;4.85;100.00
11444;BME280;5778;47.856;12.154;2023-02-13T10:09:24;98317.78;;;5.03;100.00
11444;BME280;5778;47.856;12.154;2023-02-13T10:12:18;98317.78;;;5.03;100.00
11444;BME280;5778;47.856;12.154;2023-02-13T10:14:57;98318.94;;;5.00;100.00
11444;BME280;5778;47.856;12.154;2023-02-13T10:17:31;98314.81;;;4.90;100.00
11444;BME280;5778;47.856;12.154;2023-02-13T10:20:03;98308.03;;;5.11;100.00
11444;BME280;5778;47.856;12.154;2023-02-13T10:22:35;98308.59;;;4.67;100.00
11444;BME280;5778;47.856;12.154;2023-02-13T10:25:06;98308.97;;;4.64;100.00
11444;BME280;5778;47.856;12.154;2023-02-13T10:27:39;98313.22;;;4.73;100.00
11444;BME280;5778;47.856;12.154;2023-02-13T10:30:21;98306.63;;;4.85;100.00
11444;BME280;5778;47.856;12.154;2023-02-13T10:32:56;98298.06;;;4.67;100.00
11444;BME280;5778;47.856;12.154;2023-02-13T10:35:41;98305.94;;;4.91;100.00
11444;BME280;5778;47.856;12.154;2023-02-13T10:38:14;98301.97;;;4.95;100.00
11444;BME280;5778;47.856;12.154;2023-02-13T10:40:50;98298.88;;;4.83;100.00
11444;BME280;5778;47.856;12.154;2023-02-13T10:43:20;98300.19;;;4.87;100.00
11444;BME280;5778;47.856;12.154;2023-02-13T10:46:04;98294.84;;;5.03;100.00
11444;BME280;5778;47.856;12.154;2023-02-13T10:48:55;98293.63;;;5.22;100.00
11444;BME280;5778;47.856;12.154;2023-02-13T10:51:31;98281.56;;;5.66;100.00
11444;BME280;5778;47.856;12.154;2023-02-13T10:54:17;98281.91;;;5.63;100.00
11444;BME280;5778;47.856;12.154;2023-02-13T10:56:54;98281.00;;;5.86;100.00
11444;BME280;5778;47.856;12.154;2023-02-13T10:59:36;98277.75;;;5.68;100.00
11444;BME280;5778;47.856;12.154;2023-02-13T11:02:20;98275.94;;;5.99;100.00
11444;BME280;5778;47.856;12.154;2023-02-13T11:04:48;98270.75;;;6.28;100.00
11444;BME280;5778;47.856;12.154;2023-02-13T11:07:20;98264.97;;;6.33;100.00
11444;BME280;5778;47.856;12.154;2023-02-13T11:09:51;98266.38;;;6.21;100.00
11444;BME280;5778;47.856;12.154;2023-02-13T11:12:26;98267.16;;;6.44;100.00
11444;BME280;5778;47.856;12.154;2023-02-13T11:14:56;98259.25;;;6.58;100.00
11444;BME280;5778;47.856;12.154;2023-02-13T11:17:25;98264.22;;;6.76;100.00
11444;BME280;5778;47.856;12.154;2023-02-13T11:19:54;98265.00;;;6.62;100.00
11444;BME280;5778;47.856;12.154;2023-02-13T11:22:34;98255.09;;;6.78;100.00
11444;BME280;5778;47.856;12.154;2023-02-13T11:25:06;98260.34;;;6.64;100.00
11444;BME280;5778;47.856;12.154;2023-02-13T11:27:36;98253.06;;;6.51;100.00
11444;BME280;5778;47.856;12.154;2023-02-13T11:30:07;98257.25;;;6.60;100.00
11444;BME280;5778;47.856;12.154;2023-02-13T11:32:57;98248.59;;;6.52;100.00
11444;BME280;5778;47.856;12.154;2023-02-13T11:35:27;98255.91;;;6.64;100.00
11444;BME280;5778;47.856;12.154;2023-02-13T11:38:20;98263.16;;;6.48;100.00
11444;BME280;5778;47.856;12.154;2023-02-13T11:40:50;98253.88;;;6.66;100.00
11444;BME280;5778;47.856;12.154;2023-02-13T11:43:25;98256.56;;;6.81;100.00
11444;BME280;5778;47.856;12.154;2023-02-13T11:46:05;98256.75;;;7.08;100.00
11444;BME280;5778;47.856;12.154;2023-02-13T11:48:33;98255.34;;;6.83;100.00
11444;BME280;5778;47.856;12.154;2023-02-13T11:51:01;98242.69;;;7.22;100.00
11444;BME280;5778;47.856;12.154;2023-02-13T11:53:35;98246.06;;;7.02;100.00
11444;BME280;5778;47.856;12.154;2023-02-13T11:56:07;98240.31;;;7.13;100.00
11444;BME280;5778;47.856;12.154;2023-02-13T11:58:36;98245.25;;;7.16;100.00
11444;BME280;5778;47.856;12.154;2023-02-13T12:01:22;98238.59;;;7.05;100.00
11444;BME280;5778;47.856;12.154;2023-02-13T12:04:04;98240.84;;;7.23;100.00
11444;BME280;5778;47.856;12.154;2023-02-13T12:06:33;98239.59;;;7.69;100.00
11444;BME280;5778;47.856;12.154;2023-02-13T12:09:11;98244.97;;;7.11;100.00
11444;BME280;5778;47.856;12.154;2023-02-13T12:11:43;98241.50;;;6.96;100.00
11444;BME280;5778;47.856;12.154;2023-02-13T12:14:14;98236.56;;;7.22;100.00
11444;BME280;5778;47.856;12.154;2023-02-13T12:16:45;98231.44;;;7.70;100.00
11444;BME280;5778;47.856;12.154;2023-02-13T12:19:18;98229.00;;;7.69;100.00
11444;BME280;5778;47.856;12.154;2023-02-13T12:21:58;98227.75;;;7.86;100.00
11444;BME280;5778;47.856;12.154;2023-02-13T12:24:46;98229.53;;;7.43;100.00
11444;BME280;5778;47.856;12.154;2023-02-13T12:27:21;98219.22;;;7.69;100.00
11444;BME280;5778;47.856;12.154;2023-02-13T12:30:12;98215.06;;;8.02;100.00
11444;BME280;5778;47.856;12.154;2023-02-13T12:32:51;98225.34;;;8.33;100.00
11444;BME280;5778;47.856;12.154;2023-02-13T12:35:34;98225.00;;;8.70;100.00
11444;BME280;5778;47.856;12.154;2023-02-13T12:38:17;98224.00;;;8.71;100.00
11444;BME280;5778;47.856;12.154;2023-02-13T12:41:13;98220.44;;;8.57;100.00
11444;BME280;5778;47.856;12.154;2023-02-13T12:47:11;98221.28;;;8.16;100.00
11444;BME280;5778;47.856;12.154;2023-02-13T12:53:07;98221.53;;;8.00;100.00
11444;BME280;5778;47.856;12.154;2023-02-13T12:55:48;98214.09;;;7.32;100.00
11444;BME280;5778;47.856;12.154;2023-02-13T12:58:40;98214.97;;;8.17;100.00
11444;BME280;5778;47.856;12.154;2023-02-13T13:01:19;98202.03;;;8.01;100.00
11444;BME280;5778;47.856;12.154;2023-02-13T13:04:08;98204.47;;;7.46;100.00
11444;BME280;5778;47.856;12.154;2023-02-13T13:06:49;98207.69;;;7.98;100.00
11444;BME280;5778;47.856;12.154;2023-02-13T13:09:38;98201.56;;;7.97;100.00
11444;BME280;5778;47.856;12.154;2023-02-13T13:12:17;98204.97;;;8.61;100.00
11444;BME280;5778;47.856;12.154;2023-02-13T13:14:53;98200.88;;;8.92;100.00
11444;BME280;5778;47.856;12.154;2023-02-13T13:17:32;98191.53;;;9.50;100.00
11444;BME280;5778;47.856;12.154;2023-02-13T13:23:03;98192.41;;;9.70;100.00
11444;BME280;5778;47.856;12.154;2023-02-13T13:25:34;98196.34;;;10.00;100.00
11444;BME280;5778;47.856;12.154;2023-02-13T13:28:10;98194.53;;;10.07;100.00
11444;BME280;5778;47.856;12.154;2023-02-13T13:30:42;98195.38;;;10.14;100.00
11444;BME280;5778;47.856;12.154;2023-02-13T13:33:24;98193.72;;;10.19;100.00
11444;BME280;5778;47.856;12.154;2023-02-13T13:35:57;98200.69;;;10.46;100.00
11444;BME280;5778;47.856;12.154;2023-02-13T13:38:35;98198.03;;;10.59;100.00
11444;BME280;5778;47.856;12.154;2023-02-13T13:41:08;98197.38;;;10.77;100.00